createdAt,value
2018-09-13T00:00:19.237Z,4.60
2018-09-13T00:02:49.876Z,5.00
2018-09-13T00:05:20.448Z,4.93
2018-09-13T00:07:50.971Z,4.73
2018-09-13T00:10:20.737Z,4.90
2018-09-13T00:12:51.244Z,5.07
2018-09-13T00:15:21.142Z,5.00
2018-09-13T00:17:51.095Z,5.33
2018-09-13T00:20:21.606Z,5.67
2018-09-13T00:22:52.052Z,5.37
2018-09-13T00:25:22.865Z,5.07
2018-09-13T00:27:53.518Z,5.20
2018-09-13T00:30:24.025Z,5.37
2018-09-13T00:32:54.676Z,5.00
2018-09-13T00:35:25.904Z,5.20
2018-09-13T00:37:56.453Z,4.80
2018-09-13T00:40:27.008Z,4.97
2018-09-13T00:42:57.517Z,5.40
2018-09-13T00:45:28.153Z,5.27
2018-09-13T00:47:59.078Z,5.17
2018-09-13T00:50:29.485Z,4.97
2018-09-13T00:53:00.136Z,5.20
2018-09-13T00:55:30.801Z,5.60
2018-09-13T00:58:01.323Z,5.30
2018-09-13T01:00:31.796Z,5.57
2018-09-13T01:03:02.352Z,5.53
2018-09-13T01:05:32.856Z,5.80
2018-09-13T01:08:02.641Z,5.87
2018-09-13T01:10:32.299Z,5.30
2018-09-13T01:13:02.851Z,5.83
2018-09-13T01:15:33.284Z,6.27
2018-09-13T01:18:03.644Z,6.27
2018-09-13T01:20:33.540Z,6.47
2018-09-13T01:23:03.408Z,6.47
2018-09-13T01:25:33.946Z,5.93
2018-09-13T01:28:04.595Z,6.37
2018-09-13T01:30:35.233Z,6.40
2018-09-13T01:33:05.681Z,6.33
2018-09-13T01:35:35.992Z,6.33
2018-09-13T01:38:06.456Z,7.07
2018-09-13T01:40:37.338Z,6.37
2018-09-13T01:43:08.028Z,6.90
2018-09-13T01:45:38.385Z,6.90
2018-09-13T01:48:09.021Z,7.20
2018-09-13T01:50:39.465Z,6.43
2018-09-13T01:53:10.064Z,7.03
2018-09-13T01:55:40.612Z,6.90
2018-09-13T01:58:11.192Z,7.67
2018-09-13T02:00:41.628Z,7.60
2018-09-13T02:03:12.104Z,7.87
2018-09-13T02:05:42.537Z,7.17
2018-09-13T02:08:13.040Z,7.73
2018-09-13T02:10:43.435Z,7.70
2018-09-13T02:13:14.003Z,8.07
2018-09-13T02:15:44.489Z,8.20
2018-09-13T02:18:14.976Z,7.20
2018-09-13T02:20:45.316Z,7.37
2018-09-13T02:23:15.796Z,7.93
2018-09-13T02:25:46.319Z,8.03
2018-09-13T02:28:16.763Z,7.87
2018-09-13T02:30:47.280Z,7.63
2018-09-13T02:33:17.836Z,8.33
2018-09-13T02:35:48.434Z,7.90
2018-09-13T02:38:19.017Z,7.83
2018-09-13T02:40:49.627Z,7.87
2018-09-13T02:43:20.133Z,7.40
2018-09-13T02:45:50.613Z,7.17
2018-09-13T02:48:21.217Z,7.87
2018-09-13T02:50:51.560Z,7.27
2018-09-13T02:53:22.061Z,6.70
2018-09-13T02:55:52.665Z,7.10
2018-09-13T02:58:23.385Z,7.67
2018-09-13T03:00:54.951Z,7.77
2018-09-13T03:03:25.584Z,7.27
2018-09-13T03:05:56.368Z,7.20
2018-09-13T03:08:27.419Z,7.50
2018-09-13T03:10:57.991Z,7.23
2018-09-13T03:13:28.415Z,7.70
2018-09-13T03:15:59.357Z,7.00
2018-09-13T03:18:29.984Z,7.93
2018-09-13T03:21:00.644Z,7.67
2018-09-13T03:23:31.336Z,7.50
2018-09-13T03:26:01.748Z,6.83
2018-09-13T03:28:32.425Z,6.87
2018-09-13T03:31:03.021Z,7.20
2018-09-13T03:33:33.628Z,7.67
2018-09-13T03:36:04.101Z,7.23
2018-09-13T03:38:34.770Z,7.50
2018-09-13T03:41:05.460Z,6.90
2018-09-13T03:43:36.180Z,7.33
2018-09-13T03:46:06.799Z,7.57
2018-09-13T03:48:37.177Z,6.90
2018-09-13T03:51:07.769Z,7.40
2018-09-13T03:53:38.138Z,7.70
2018-09-13T03:56:08.561Z,7.20
2018-09-13T03:58:39.112Z,6.50
2018-09-13T04:01:09.603Z,7.23
2018-09-13T04:03:40.196Z,7.07
2018-09-13T04:06:11.068Z,7.10
2018-09-13T04:08:41.649Z,6.93
2018-09-13T04:11:11.540Z,7.10
2018-09-13T04:13:42.077Z,7.70
2018-09-13T04:16:12.436Z,7.33
2018-09-13T04:18:42.923Z,7.17
2018-09-13T04:21:13.487Z,7.63
2018-09-13T04:23:43.171Z,7.60
2018-09-13T04:26:13.543Z,7.03
2018-09-13T04:28:44.205Z,7.10
2018-09-13T04:31:14.745Z,7.97
2018-09-13T04:33:45.365Z,8.10
2018-09-13T04:36:15.976Z,6.60
2018-09-13T04:38:46.624Z,7.13
2018-09-13T04:41:17.096Z,7.73
2018-09-13T04:43:48.116Z,6.53
2018-09-13T04:46:18.628Z,7.20
2018-09-13T04:48:48.401Z,7.53
2018-09-13T04:51:19.357Z,6.70
2018-09-13T04:53:49.971Z,6.63
2018-09-13T04:56:20.651Z,7.20
2018-09-13T04:58:50.952Z,6.43
2018-09-13T05:01:21.459Z,6.50
2018-09-13T05:03:52.713Z,6.60
2018-09-13T05:06:23.052Z,7.00
2018-09-13T05:08:53.838Z,7.13
2018-09-13T05:11:24.487Z,7.07
2018-09-13T05:13:55.333Z,6.70
2018-09-13T05:16:25.892Z,6.93
2018-09-13T05:18:56.422Z,7.50
2018-09-13T05:21:26.945Z,7.07
2018-09-13T05:23:57.585Z,7.30
2018-09-13T05:26:28.064Z,6.50
2018-09-13T05:28:58.665Z,6.80
2018-09-13T05:31:29.138Z,6.87
2018-09-13T05:33:59.593Z,6.97
2018-09-13T05:36:30.065Z,6.23
2018-09-13T05:39:01.435Z,6.60
2018-09-13T05:41:32.043Z,6.40
2018-09-13T05:44:02.528Z,6.07
2018-09-13T05:46:33.261Z,5.73
2018-09-13T05:49:03.860Z,6.40
2018-09-13T05:51:34.297Z,5.23
2018-09-13T05:54:04.760Z,5.57
2018-09-13T05:56:35.129Z,5.27
2018-09-13T05:59:05.659Z,5.23
2018-09-13T06:01:36.368Z,4.67
2018-09-13T06:04:06.192Z,5.23
2018-09-13T06:06:36.520Z,5.30
2018-09-13T06:09:09.315Z,5.60
2018-09-13T06:11:39.956Z,5.50
2018-09-13T06:14:10.576Z,4.80
2018-09-13T06:16:41.324Z,5.23
2018-09-13T06:19:12.017Z,5.43
2018-09-13T06:21:42.609Z,5.17
2018-09-13T06:24:13.128Z,5.20
2018-09-13T06:26:43.763Z,4.77
2018-09-13T06:29:14.317Z,5.40
2018-09-13T06:31:44.177Z,5.40
2018-09-13T06:34:14.662Z,4.70
2018-09-13T06:36:44.619Z,5.10
2018-09-13T06:39:14.968Z,5.40
2018-09-13T06:41:45.429Z,4.80
2018-09-13T06:44:15.216Z,4.37
2018-09-13T06:46:45.580Z,5.20
2018-09-13T06:49:16.039Z,4.90
2018-09-13T06:51:46.465Z,5.67
2018-09-13T06:54:16.988Z,5.60
2018-09-13T06:56:46.699Z,5.53
2018-09-13T06:59:17.051Z,5.83
2018-09-13T07:01:47.514Z,5.17
2018-09-13T07:04:17.800Z,6.20
2018-09-13T07:06:48.156Z,6.13
2018-09-13T07:09:18.608Z,5.77
2018-09-13T07:11:48.960Z,6.53
2018-09-13T07:14:19.580Z,6.90
2018-09-13T07:16:49.988Z,6.50
2018-09-13T07:19:20.321Z,7.00
2018-09-13T07:21:50.708Z,7.50
2018-09-13T07:24:21.241Z,7.57
2018-09-13T07:26:50.994Z,7.07
2018-09-13T07:29:21.324Z,7.10
2018-09-13T07:31:51.704Z,6.57
2018-09-13T07:34:21.640Z,6.77
2018-09-13T07:36:52.335Z,6.30
2018-09-13T07:39:22.884Z,6.33
2018-09-13T07:41:53.301Z,6.27
2018-09-13T07:44:23.720Z,6.77
2018-09-13T07:46:54.109Z,6.17
2018-09-13T07:49:24.641Z,7.30
2018-09-13T07:51:55.040Z,6.40
2018-09-13T07:54:25.620Z,5.80
2018-09-13T07:56:56.084Z,5.87
2018-09-13T07:59:25.859Z,5.60
2018-09-13T08:01:56.360Z,5.80
2018-09-13T08:04:27.160Z,6.07
2018-09-13T08:06:57.589Z,5.83
2018-09-13T08:09:28.106Z,5.90
2018-09-13T08:11:59.673Z,5.37
2018-09-13T08:14:29.483Z,5.17
2018-09-13T08:16:59.094Z,5.77
2018-09-13T08:19:29.405Z,5.07
2018-09-13T08:21:59.925Z,5.70
2018-09-13T08:24:30.549Z,5.97
2018-09-13T08:27:00.455Z,5.43
2018-09-13T08:29:30.716Z,5.53
2018-09-13T08:32:01.265Z,6.57
2018-09-13T08:34:31.854Z,6.60
2018-09-13T08:37:02.342Z,6.60
2018-09-13T08:39:32.823Z,7.20
2018-09-13T08:42:03.224Z,7.07
2018-09-13T08:44:33.757Z,7.50
2018-09-13T08:47:04.170Z,7.03
2018-09-13T08:49:34.640Z,6.83
2018-09-13T08:52:05.116Z,7.33
2018-09-13T08:54:36.793Z,7.20
2018-09-13T08:57:07.193Z,7.17
2018-09-13T08:59:37.909Z,5.67
2018-09-13T09:02:08.504Z,6.00
2018-09-13T09:04:39.059Z,6.27
2018-09-13T09:07:09.457Z,6.50
2018-09-13T09:09:40.014Z,6.77
2018-09-13T09:12:10.544Z,6.00
2018-09-13T09:14:41.296Z,6.80
2018-09-13T09:17:11.908Z,9.20
2018-09-13T09:19:42.392Z,7.60
2018-09-13T09:22:12.707Z,7.77
2018-09-13T09:24:43.108Z,6.80
2018-09-13T09:27:13.745Z,6.93
2018-09-13T09:29:44.228Z,6.13
2018-09-13T09:32:14.629Z,7.40
2018-09-13T09:34:44.625Z,7.00
2018-09-13T09:37:15.193Z,6.27
2018-09-13T09:39:45.677Z,6.43
2018-09-13T09:42:16.140Z,6.80
2018-09-13T09:44:46.061Z,6.63
2018-09-13T09:47:16.361Z,6.53
2018-09-13T09:49:46.961Z,6.00
2018-09-13T09:52:17.602Z,6.17
2018-09-13T09:54:47.445Z,6.67
2018-09-13T09:57:17.889Z,5.90
2018-09-13T09:59:48.436Z,6.90
2018-09-13T10:02:22.240Z,5.70
2018-09-13T10:04:53.076Z,6.67
2018-09-13T10:07:23.640Z,6.33
2018-09-13T10:09:54.300Z,6.57
2018-09-13T10:12:25.147Z,5.80
2018-09-13T10:15:00.027Z,6.53
2018-09-13T10:17:35.400Z,6.83
2018-09-13T10:20:10.720Z,6.07
2018-09-13T10:22:46.230Z,5.97
2018-09-13T10:25:21.913Z,6.50
2018-09-13T10:27:57.344Z,6.37
2018-09-13T10:30:32.712Z,6.10
2018-09-13T10:33:08.340Z,6.47
2018-09-13T10:35:43.824Z,6.87
2018-09-13T10:38:19.212Z,5.60
2018-09-13T10:40:54.740Z,5.07
2018-09-13T10:43:30.780Z,5.43
2018-09-13T10:46:06.219Z,5.50
2018-09-13T10:48:36.064Z,5.70
2018-09-13T10:51:11.418Z,5.80
2018-09-13T10:53:47.026Z,5.83
2018-09-13T10:56:17.585Z,5.07
2018-09-13T10:58:47.988Z,5.60
2018-09-13T11:01:18.535Z,5.67
2018-09-13T11:03:48.841Z,5.60
2018-09-13T11:06:19.392Z,5.30
2018-09-13T11:08:49.902Z,5.50
2018-09-13T11:11:20.389Z,5.53
2018-09-13T11:13:57.942Z,5.77
2018-09-13T11:16:28.396Z,5.37
2018-09-13T11:18:59.107Z,5.63
2018-09-13T11:21:29.656Z,5.43
2018-09-13T11:24:00.061Z,5.63
2018-09-13T11:26:30.483Z,5.50
2018-09-13T11:29:00.968Z,5.90
2018-09-13T11:31:31.470Z,5.20
2018-09-13T11:34:01.870Z,5.60
2018-09-13T11:36:32.346Z,5.47
2018-09-13T11:39:02.841Z,6.53
2018-09-13T11:41:33.327Z,5.70
2018-09-13T11:44:04.744Z,5.10
2018-09-13T11:46:35.489Z,6.03
2018-09-13T11:49:05.427Z,5.30
2018-09-13T11:51:35.975Z,5.90
2018-09-13T11:54:06.475Z,5.63
2018-09-13T11:56:36.876Z,5.13
2018-09-13T11:59:07.240Z,5.70
2018-09-13T12:01:37.820Z,5.67
2018-09-13T12:04:08.293Z,5.53
2018-09-13T12:06:38.874Z,5.77
2018-09-13T12:09:13.102Z,5.10
2018-09-13T12:11:43.588Z,5.00
2018-09-13T12:14:14.828Z,4.30
2018-09-13T12:16:45.360Z,4.63
2018-09-13T12:19:15.921Z,4.37
2018-09-13T12:21:46.449Z,4.10
2018-09-13T12:24:16.920Z,4.37
2018-09-13T12:26:47.405Z,4.50
2018-09-13T12:29:17.859Z,3.93
2018-09-13T12:31:48.327Z,4.33
2018-09-13T12:34:18.833Z,3.73
2018-09-13T12:36:49.317Z,3.63
2018-09-13T12:39:19.893Z,3.70
2018-09-13T12:41:50.498Z,3.10
2018-09-13T12:44:20.420Z,3.50
2018-09-13T12:46:50.102Z,3.43
2018-09-13T12:49:21.005Z,3.10
2018-09-13T12:51:51.396Z,3.20
2018-09-13T12:54:21.242Z,3.60
2018-09-13T12:56:52.638Z,2.93
2018-09-13T12:59:23.101Z,3.40
2018-09-13T13:01:53.681Z,3.60
2018-09-13T13:04:24.232Z,3.00
2018-09-13T13:06:54.629Z,3.30
2018-09-13T13:09:25.084Z,3.20
2018-09-13T13:11:55.840Z,3.10
2018-09-13T13:14:26.150Z,3.03
2018-09-13T13:16:56.699Z,3.40
2018-09-13T13:19:27.131Z,3.20
2018-09-13T13:21:58.072Z,3.10
2018-09-13T13:24:28.564Z,2.97
2018-09-13T13:26:59.909Z,2.63
2018-09-13T13:29:29.769Z,4.13
2018-09-13T13:32:00.305Z,2.87
2018-09-13T13:34:30.729Z,2.80
2018-09-13T13:37:01.165Z,2.70
2018-09-13T13:39:32.309Z,3.80
2018-09-13T13:42:03.573Z,3.40
2018-09-13T13:44:34.069Z,3.10
2018-09-13T13:47:04.649Z,2.63
2018-09-13T13:49:35.167Z,2.67
2018-09-13T13:52:05.664Z,2.60
2018-09-13T13:54:36.008Z,3.27
2018-09-13T13:57:06.477Z,2.77
2018-09-13T13:59:36.916Z,3.53
2018-09-13T14:02:07.489Z,3.30
2018-09-13T14:04:37.865Z,3.00
2018-09-13T14:07:07.599Z,2.70
2018-09-13T14:09:38.127Z,2.53
2018-09-13T14:12:08.821Z,2.73
2018-09-13T14:14:39.253Z,2.57
2018-09-13T14:17:08.996Z,3.17
2018-09-13T14:19:39.668Z,3.03
2018-09-13T14:22:10.311Z,3.00
2018-09-13T14:24:40.749Z,2.63
2018-09-13T14:27:10.635Z,3.20
2018-09-13T14:29:41.054Z,2.80
2018-09-13T14:32:11.693Z,3.13
2018-09-13T14:34:42.129Z,2.90
2018-09-13T14:37:12.546Z,2.77
2018-09-13T14:39:42.944Z,2.80
2018-09-13T14:42:13.481Z,6.67
2018-09-13T14:44:43.948Z,4.33
2018-09-13T14:47:14.692Z,3.00
2018-09-13T14:49:45.142Z,3.70
2018-09-13T14:52:15.718Z,3.80
2018-09-13T14:54:46.297Z,2.83
2018-09-13T14:57:16.972Z,4.17
2018-09-13T14:59:47.412Z,4.53
2018-09-13T15:02:17.816Z,3.67
2018-09-13T15:04:48.300Z,4.20
2018-09-13T15:07:18.076Z,4.10
2018-09-13T15:09:48.408Z,4.83
2018-09-13T15:12:18.888Z,4.73
2018-09-13T15:14:49.314Z,4.13
2018-09-13T15:17:19.766Z,6.53
2018-09-13T15:19:50.104Z,4.57
2018-09-13T15:22:20.596Z,3.53
2018-09-13T15:24:51.118Z,3.90
2018-09-13T15:27:21.504Z,3.77
2018-09-13T15:29:52.081Z,4.20
2018-09-13T15:32:22.525Z,3.20
2018-09-13T15:34:52.994Z,3.53
2018-09-13T15:37:22.824Z,3.20
2018-09-13T15:39:53.171Z,3.30
2018-09-13T15:42:23.569Z,3.13
2018-09-13T15:44:53.968Z,2.83
2018-09-13T15:47:24.478Z,3.20
2018-09-13T15:49:55.460Z,3.10
2018-09-13T15:52:26.128Z,3.13
2018-09-13T15:54:56.653Z,3.10
2018-09-13T15:57:26.984Z,3.23
2018-09-13T15:59:57.473Z,2.80
2018-09-13T16:02:27.973Z,2.20
2018-09-13T16:04:58.335Z,1.97
2018-09-13T16:07:28.784Z,2.20
2018-09-13T16:09:59.180Z,1.93
2018-09-13T16:12:29.605Z,2.00
2018-09-13T16:14:59.307Z,2.00
2018-09-13T16:17:28.869Z,2.10
2018-09-13T16:19:59.269Z,1.77
2018-09-13T16:22:29.576Z,2.20
2018-09-13T16:25:00.130Z,2.60
2018-09-13T16:27:30.602Z,2.13
2018-09-13T16:30:01.121Z,2.50
2018-09-13T16:32:31.732Z,2.53
2018-09-13T16:35:02.211Z,2.97
2018-09-13T16:37:37.724Z,5.53
2018-09-13T16:41:10.985Z,3.60
2018-09-13T16:43:46.541Z,2.27
2018-09-13T16:46:21.978Z,2.20
2018-09-13T16:48:52.413Z,1.67
2018-09-13T16:51:22.941Z,2.87
2018-09-13T16:53:53.357Z,1.90
2018-09-13T16:56:24.076Z,2.10
2018-09-13T16:58:54.497Z,3.50
2018-09-13T17:01:25.052Z,5.07
2018-09-13T17:03:55.781Z,2.40
2018-09-13T17:06:26.335Z,2.20
2018-09-13T17:08:56.765Z,1.80
2018-09-13T17:11:27.311Z,2.47
2018-09-13T17:13:58.094Z,2.00
2018-09-13T17:16:28.661Z,2.23
2018-09-13T17:18:59.065Z,2.20
2018-09-13T17:21:29.636Z,1.87
2018-09-13T17:24:00.022Z,1.90
2018-09-13T17:26:30.884Z,2.87
2018-09-13T17:29:01.712Z,2.20
2018-09-13T17:31:32.565Z,2.50
2018-09-13T17:34:02.957Z,2.10
2018-09-13T17:36:33.401Z,2.10
2018-09-13T17:39:08.354Z,2.10
2018-09-13T17:41:38.913Z,2.60
2018-09-13T17:44:09.220Z,2.50
2018-09-13T17:46:39.703Z,2.10
2018-09-13T17:51:46.892Z,2.20
2018-09-13T17:54:18.367Z,2.50
2018-09-13T17:56:48.772Z,2.20
2018-09-13T17:59:20.960Z,2.10
2018-09-13T18:01:57.001Z,2.40
2018-09-13T18:04:32.908Z,2.03
2018-09-13T18:07:08.445Z,2.10
2018-09-13T18:09:38.856Z,5.73
2018-09-13T18:12:11.984Z,5.13
2018-09-13T18:14:47.052Z,3.10
2018-09-13T18:17:22.025Z,2.23
2018-09-13T18:19:58.430Z,2.30
2018-09-13T18:22:28.926Z,2.30
2018-09-13T18:24:58.779Z,2.23
2018-09-13T18:30:04.841Z,3.63
2018-09-13T18:32:35.365Z,3.07
2018-09-13T18:35:05.988Z,2.73
2018-09-13T18:37:35.929Z,2.50
2018-09-13T18:40:11.364Z,2.90
2018-09-13T18:42:41.701Z,2.23
2018-09-13T18:45:13.874Z,2.20
2018-09-13T18:47:45.357Z,2.50
2018-09-13T18:50:15.842Z,2.03
2018-09-13T18:52:48.109Z,2.90
2018-09-13T18:55:21.530Z,2.70
2018-09-13T18:57:56.055Z,2.03
2018-09-13T19:00:31.989Z,3.43
2018-09-13T19:03:05.065Z,2.67
2018-09-13T19:05:38.044Z,2.20
2018-09-13T19:08:09.004Z,2.10
2018-09-13T19:10:38.795Z,1.77
2018-09-13T19:15:44.757Z,1.80
2018-09-13T19:18:15.365Z,2.13
2018-09-13T19:20:45.924Z,2.30
2018-09-13T19:23:17.356Z,2.37
2018-09-13T19:25:47.026Z,2.07
2018-09-13T19:28:19.102Z,2.60
2018-09-13T19:33:31.208Z,3.20
2018-09-13T19:36:01.717Z,3.93
2018-09-13T19:38:32.098Z,3.20
2018-09-13T19:41:02.331Z,3.50
2018-09-13T19:43:33.113Z,3.80
2018-09-13T19:46:03.750Z,3.00
2018-09-13T19:48:35.020Z,2.50
2018-09-13T19:51:04.969Z,2.90
2018-09-13T19:53:35.419Z,4.70
2018-09-13T19:56:06.149Z,3.17
2018-09-13T19:58:36.929Z,3.00
2018-09-13T20:01:08.701Z,2.83
2018-09-13T20:03:38.636Z,3.20
2018-09-13T20:06:09.097Z,12.20
2018-09-13T20:08:39.612Z,4.53
2018-09-13T20:11:10.145Z,3.00
2018-09-13T20:13:40.669Z,3.10
2018-09-13T20:16:11.097Z,2.70
2018-09-13T20:18:41.774Z,3.07
2018-09-13T20:21:12.346Z,3.10
2018-09-13T20:23:42.829Z,3.47
2018-09-13T20:26:13.221Z,2.53
2018-09-13T20:28:43.885Z,3.83
2018-09-13T20:31:13.876Z,3.20
2018-09-13T20:33:44.275Z,3.40
2018-09-13T20:36:14.663Z,3.20
2018-09-13T20:38:45.308Z,3.07
2018-09-13T20:41:15.051Z,2.70
2018-09-13T20:43:45.337Z,2.83
2018-09-13T20:46:16.960Z,3.30
2018-09-13T20:48:47.624Z,3.17
2018-09-13T20:51:17.525Z,3.27
2018-09-13T20:53:47.932Z,2.70
2018-09-13T20:56:19.958Z,3.40
2018-09-13T20:58:51.021Z,3.20
2018-09-13T21:01:21.609Z,3.70
2018-09-13T21:03:52.090Z,3.70
2018-09-13T21:06:22.697Z,3.80
2018-09-13T21:08:53.453Z,3.30
2018-09-13T21:11:23.913Z,3.50
2018-09-13T21:13:54.327Z,3.53
2018-09-13T21:16:24.951Z,3.50
2018-09-13T21:18:55.473Z,3.23
2018-09-13T21:21:25.949Z,2.97
2018-09-13T21:23:56.435Z,3.80
2018-09-13T21:26:26.854Z,4.13
2018-09-13T21:28:57.285Z,4.30
2018-09-13T21:31:28.362Z,3.53
2018-09-13T21:33:58.857Z,3.27
2018-09-13T21:36:29.300Z,3.00
2018-09-13T21:38:59.902Z,2.93
2018-09-13T21:41:30.446Z,3.07
2018-09-13T21:44:01.217Z,3.07
2018-09-13T21:46:30.931Z,3.10
2018-09-13T21:49:01.286Z,2.87
2018-09-13T21:51:32.076Z,2.80
2018-09-13T21:54:01.882Z,2.83
2018-09-13T21:56:32.353Z,3.00
2018-09-13T21:59:02.930Z,2.40
2018-09-13T22:01:32.709Z,3.07
2018-09-13T22:04:03.124Z,3.00
2018-09-13T22:06:33.505Z,2.87
2018-09-13T22:09:03.547Z,3.00
2018-09-13T22:11:33.892Z,2.70
2018-09-13T22:14:04.749Z,2.90
2018-09-13T22:16:35.184Z,3.60
2018-09-13T22:19:06.564Z,3.27
2018-09-13T22:21:37.079Z,3.03
2018-09-13T22:24:07.562Z,2.90
2018-09-13T22:26:38.020Z,3.10
2018-09-13T22:29:08.607Z,3.17
2018-09-13T22:31:39.090Z,3.20
2018-09-13T22:34:09.612Z,3.00
2018-09-13T22:36:40.015Z,2.70
2018-09-13T22:39:11.960Z,3.50
2018-09-13T22:41:42.535Z,2.67
2018-09-13T22:44:13.040Z,2.67
2018-09-13T22:46:43.437Z,3.30
2018-09-13T22:49:14.017Z,3.10
2018-09-13T22:51:44.448Z,3.00
2018-09-13T22:54:14.920Z,3.50
2018-09-13T22:56:45.316Z,3.40
2018-09-13T22:59:15.194Z,2.63
2018-09-13T23:01:45.561Z,3.00
2018-09-13T23:04:16.064Z,3.23
2018-09-13T23:06:46.487Z,3.07
2018-09-13T23:09:16.864Z,3.63
2018-09-13T23:11:47.755Z,3.50
2018-09-13T23:14:18.230Z,3.17
2018-09-13T23:16:49.580Z,3.23
2018-09-13T23:19:19.495Z,3.07
2018-09-13T23:21:49.988Z,3.17
2018-09-13T23:24:19.809Z,3.33
2018-09-13T23:26:50.126Z,3.47
2018-09-13T23:29:19.965Z,3.70
2018-09-13T23:31:50.268Z,3.40
2018-09-13T23:34:20.773Z,3.80
2018-09-13T23:36:50.632Z,2.97
2018-09-13T23:39:21.198Z,2.83
2018-09-13T23:41:51.577Z,3.43
2018-09-13T23:44:22.021Z,3.83
2018-09-13T23:46:52.439Z,4.47
2018-09-13T23:49:22.901Z,3.53
2018-09-13T23:51:53.363Z,3.37
2018-09-13T23:54:23.271Z,3.90
2018-09-13T23:56:52.782Z,3.50
2018-09-13T23:59:23.164Z,3.57
